createdAt,value
2023-03-12T00:01:18.098Z,19.15
2023-03-12T00:03:48.088Z,19.14
2023-03-12T00:06:17.963Z,19.14
2023-03-12T00:08:46.045Z,19.14
2023-03-12T00:11:16.097Z,19.12
2023-03-12T00:13:44.783Z,19.11
2023-03-12T00:16:15.893Z,19.13
2023-03-12T00:18:43.816Z,19.12
2023-03-12T00:21:14.803Z,19.12
2023-03-12T00:23:44.034Z,19.12
2023-03-12T00:26:12.699Z,19.11
2023-03-12T00:28:44.644Z,19.10
2023-03-12T00:31:21.051Z,19.09
2023-03-12T00:33:50.091Z,19.10
2023-03-12T00:36:20.144Z,19.09
2023-03-12T00:38:49.496Z,19.08
2023-03-12T00:41:21.876Z,19.08
2023-03-12T00:43:50.357Z,19.07
2023-03-12T00:46:19.325Z,19.07
2023-03-12T00:48:46.180Z,19.07
2023-03-12T00:51:13.090Z,19.07
2023-03-12T00:53:41.856Z,19.07
2023-03-12T00:56:08.620Z,19.04
2023-03-12T00:58:35.561Z,19.05
2023-03-12T01:01:02.311Z,19.05
2023-03-12T01:03:31.277Z,19.04
2023-03-12T01:06:00.566Z,19.03
2023-03-12T01:08:27.414Z,19.03
2023-03-12T01:10:54.695Z,19.03
2023-03-12T01:13:22.628Z,19.03
2023-03-12T01:15:54.628Z,19.02
2023-03-12T01:18:22.533Z,19.03
2023-03-12T01:20:50.876Z,19.02
2023-03-12T01:23:18.022Z,19.01
2023-03-12T01:25:47.536Z,19.00
2023-03-12T01:28:16.503Z,19.00
2023-03-12T01:30:48.695Z,19.01
2023-03-12T01:33:18.521Z,19.00
2023-03-12T01:35:46.502Z,18.99
2023-03-12T01:38:15.395Z,18.99
2023-03-12T01:40:46.208Z,18.98
2023-03-12T01:43:22.599Z,18.98
2023-03-12T01:46:11.126Z,18.99
2023-03-12T01:48:45.886Z,18.96
2023-03-12T01:51:21.671Z,18.96
2023-03-12T01:53:49.864Z,18.97
2023-03-12T01:56:20.740Z,18.96
2023-03-12T01:58:56.340Z,18.95
2023-03-12T02:01:24.878Z,18.96
2023-03-12T02:03:54.095Z,18.94
2023-03-12T02:06:30.050Z,18.95
2023-03-12T02:08:56.742Z,18.94
2023-03-12T02:11:26.314Z,18.92
2023-03-12T02:13:54.613Z,18.95
2023-03-12T02:16:21.538Z,18.91
2023-03-12T02:18:52.980Z,18.88
2023-03-12T02:21:27.880Z,18.91
2023-03-12T02:24:21.648Z,18.92
2023-03-12T02:26:49.776Z,18.91
2023-03-12T02:29:20.141Z,18.90
2023-03-12T02:31:52.499Z,18.90
2023-03-12T02:34:19.273Z,18.89
2023-03-12T02:36:48.312Z,18.89
2023-03-12T02:39:14.966Z,18.89
2023-03-12T02:41:59.800Z,18.88
2023-03-12T02:44:33.409Z,18.88
2023-03-12T02:47:03.328Z,18.87
2023-03-12T02:49:35.700Z,18.87
2023-03-12T02:52:03.914Z,18.87
2023-03-12T02:54:34.444Z,18.86
2023-03-12T02:57:01.281Z,18.86
2023-03-12T02:59:31.170Z,18.86
2023-03-12T03:01:59.351Z,18.86
2023-03-12T03:04:26.578Z,18.84
2023-03-12T03:06:57.630Z,18.84
2023-03-12T03:09:25.446Z,18.84
2023-03-12T03:11:54.317Z,18.84
2023-03-12T03:14:23.362Z,18.83
2023-03-12T03:16:51.227Z,18.84
2023-03-12T03:19:20.163Z,18.83
2023-03-12T03:21:46.950Z,18.83
2023-03-12T03:24:13.603Z,18.83
2023-03-12T03:26:43.181Z,18.81
2023-03-12T03:29:13.986Z,18.81
2023-03-12T03:31:43.052Z,18.81
2023-03-12T03:34:13.141Z,18.81
2023-03-12T03:36:43.122Z,18.81
2023-03-12T03:39:10.999Z,18.80
2023-03-12T03:41:37.797Z,18.80
2023-03-12T03:44:08.032Z,18.78
2023-03-12T03:46:37.893Z,18.76
2023-03-12T03:49:07.261Z,18.79
2023-03-12T03:51:35.792Z,18.79
2023-03-12T03:54:02.549Z,18.78
2023-03-12T03:56:32.183Z,18.77
2023-03-12T03:59:07.837Z,18.76
2023-03-12T04:01:36.887Z,18.76
2023-03-12T04:04:04.075Z,18.75
2023-03-12T04:06:33.528Z,18.74
2023-03-12T04:09:00.309Z,18.75
2023-03-12T04:11:29.244Z,18.75
2023-03-12T04:13:55.950Z,18.74
2023-03-12T04:16:25.619Z,18.75
2023-03-12T04:18:53.337Z,18.73
2023-03-12T04:21:22.431Z,18.73
2023-03-12T04:23:52.695Z,18.74
2023-03-12T04:26:19.369Z,18.73
2023-03-12T04:28:46.186Z,18.72
2023-03-12T04:31:12.976Z,18.72
2023-03-12T04:33:42.250Z,18.72
2023-03-12T04:36:11.180Z,18.71
2023-03-12T04:38:38.090Z,18.70
2023-03-12T04:41:09.499Z,18.71
2023-03-12T04:43:36.200Z,18.70
2023-03-12T04:46:03.677Z,18.70
2023-03-12T04:48:34.133Z,18.69
2023-03-12T04:51:05.795Z,18.69
2023-03-12T04:53:35.253Z,18.70
2023-03-12T04:56:02.559Z,18.67
2023-03-12T04:58:31.724Z,18.68
2023-03-12T05:01:01.352Z,18.67
2023-03-12T05:03:29.949Z,18.67
2023-03-12T05:05:59.330Z,18.67
2023-03-12T05:08:27.029Z,18.68
2023-03-12T05:10:56.668Z,18.66
2023-03-12T05:13:28.271Z,18.64
2023-03-12T05:15:56.874Z,18.64
2023-03-12T05:18:27.397Z,18.64
2023-03-12T05:21:01.493Z,18.64
2023-03-12T05:23:31.361Z,18.64
2023-03-12T05:26:03.466Z,18.64
2023-03-12T05:28:34.665Z,18.63
2023-03-12T05:31:02.326Z,18.63
2023-03-12T05:33:29.260Z,18.64
2023-03-12T05:35:58.602Z,18.62
2023-03-12T05:38:28.234Z,18.61
2023-03-12T05:40:55.793Z,18.62
2023-03-12T05:43:25.400Z,18.63
2023-03-12T05:45:55.104Z,18.62
2023-03-12T05:48:27.784Z,18.63
2023-03-12T05:50:57.776Z,18.63
2023-03-12T05:53:27.380Z,18.65
2023-03-12T05:55:58.521Z,18.64
2023-03-12T05:58:25.312Z,18.63
2023-03-12T06:00:56.013Z,18.67
2023-03-12T06:03:23.763Z,18.66
2023-03-12T06:05:55.180Z,18.67
2023-03-12T06:08:24.418Z,18.68
2023-03-12T06:10:55.827Z,18.68
2023-03-12T06:13:25.362Z,18.70
2023-03-12T06:15:55.060Z,18.72
2023-03-12T06:18:22.789Z,18.74
2023-03-12T06:20:49.519Z,18.73
2023-03-12T06:23:16.344Z,18.75
2023-03-12T06:25:45.714Z,18.75
2023-03-12T06:28:15.965Z,18.73
2023-03-12T06:30:42.672Z,18.74
2023-03-12T06:33:11.634Z,18.74
2023-03-12T06:35:43.141Z,18.73
2023-03-12T06:38:12.122Z,18.74
2023-03-12T06:40:38.954Z,18.74
2023-03-12T06:43:12.309Z,18.75
2023-03-12T06:45:42.981Z,18.76
2023-03-12T06:48:09.655Z,18.76
2023-03-12T06:50:39.474Z,18.76
2023-03-12T06:53:06.217Z,18.76
2023-03-12T06:55:35.164Z,18.78
2023-03-12T06:58:04.279Z,18.80
2023-03-12T07:00:35.110Z,18.81
2023-03-12T07:03:04.589Z,18.80
2023-03-12T07:05:32.330Z,18.82
2023-03-12T07:07:58.997Z,18.82
2023-03-12T07:10:29.952Z,18.84
2023-03-12T07:12:59.915Z,18.82
2023-03-12T07:15:26.649Z,18.84
2023-03-12T07:17:56.135Z,18.85
2023-03-12T07:20:24.930Z,18.87
2023-03-12T07:22:56.018Z,18.88
2023-03-12T07:25:25.398Z,18.87
2023-03-12T07:27:55.742Z,18.88
2023-03-12T07:30:26.139Z,18.89
2023-03-12T07:32:55.756Z,18.89
2023-03-12T07:35:25.081Z,18.89
2023-03-12T07:37:55.241Z,18.90
2023-03-12T07:40:25.135Z,18.90
2023-03-12T07:42:51.875Z,18.90
2023-03-12T07:45:20.877Z,18.92
2023-03-12T07:47:49.699Z,18.91
2023-03-12T07:50:20.281Z,18.95
2023-03-12T07:52:48.270Z,18.94
2023-03-12T07:55:15.333Z,18.96
2023-03-12T07:57:43.308Z,18.97
2023-03-12T08:00:11.016Z,18.95
2023-03-12T08:02:39.683Z,18.95
2023-03-12T08:05:08.922Z,18.98
2023-03-12T08:07:37.330Z,18.97
2023-03-12T08:10:08.890Z,18.98
2023-03-12T08:12:37.721Z,18.98
2023-03-12T08:15:07.346Z,18.99
2023-03-12T08:17:36.942Z,19.01
2023-03-12T08:20:05.516Z,19.01
2023-03-12T08:22:34.561Z,19.01
2023-03-12T08:25:04.299Z,19.02
2023-03-12T08:27:34.025Z,19.02
2023-03-12T08:30:00.705Z,19.03
2023-03-12T08:32:27.582Z,19.02
2023-03-12T08:35:00.303Z,19.04
2023-03-12T08:37:27.144Z,19.04
2023-03-12T08:39:56.023Z,19.08
2023-03-12T08:42:25.826Z,19.08
2023-03-12T08:44:52.528Z,19.12
2023-03-12T08:47:21.540Z,19.09
2023-03-12T08:49:48.228Z,19.12
2023-03-12T08:52:15.152Z,19.14
2023-03-12T08:54:41.881Z,19.15
2023-03-12T08:57:10.709Z,19.17
2023-03-12T08:59:38.757Z,19.18
2023-03-12T09:02:07.909Z,19.19
2023-03-12T09:04:34.637Z,19.22
2023-03-12T09:07:03.932Z,19.21
2023-03-12T09:09:33.814Z,19.24
2023-03-12T09:12:03.175Z,19.24
2023-03-12T09:17:20.966Z,19.25
2023-03-12T09:19:49.776Z,19.26
2023-03-12T09:22:17.364Z,19.27
2023-03-12T09:24:44.112Z,19.28
2023-03-12T09:27:10.800Z,19.28
2023-03-12T09:29:46.504Z,19.29
2023-03-12T09:32:20.210Z,19.28
2023-03-12T09:34:49.163Z,19.30
2023-03-12T09:37:15.901Z,19.31
2023-03-12T09:39:45.339Z,19.31
2023-03-12T09:42:28.003Z,19.31
2023-03-12T09:45:00.786Z,19.33
2023-03-12T09:47:35.319Z,19.33
2023-03-12T09:50:13.508Z,19.34
2023-03-12T09:52:43.758Z,19.35
2023-03-12T09:55:15.564Z,19.35
2023-03-12T09:57:45.064Z,19.35
2023-03-12T10:00:15.447Z,19.36
2023-03-12T10:02:48.149Z,19.36
2023-03-12T10:05:20.544Z,19.36
2023-03-12T10:07:50.736Z,19.37
2023-03-12T10:10:25.209Z,19.38
2023-03-12T10:13:12.679Z,19.38
2023-03-12T10:15:42.505Z,19.40
2023-03-12T10:18:10.222Z,19.38
2023-03-12T10:21:12.438Z,19.37
2023-03-12T10:23:59.248Z,19.38
2023-03-12T10:26:32.227Z,19.38
2023-03-12T10:29:05.030Z,19.36
2023-03-12T10:31:54.048Z,19.38
2023-03-12T10:34:48.528Z,19.35
2023-03-12T10:37:30.481Z,19.39
2023-03-12T10:39:59.665Z,19.38
2023-03-12T10:42:27.719Z,19.37
2023-03-12T10:44:58.794Z,19.36
2023-03-12T10:47:37.900Z,19.37
2023-03-12T10:50:27.039Z,19.38
2023-03-12T10:53:12.461Z,19.37
2023-03-12T10:55:39.186Z,19.35
2023-03-12T10:58:05.964Z,19.35
2023-03-12T11:00:32.764Z,19.34
2023-03-12T11:03:05.914Z,19.34
2023-03-12T11:05:37.149Z,19.34
2023-03-12T11:08:03.905Z,19.35
2023-03-12T11:10:35.506Z,19.35
2023-03-12T11:13:07.260Z,19.36
2023-03-12T11:15:41.272Z,19.37
2023-03-12T11:18:39.006Z,19.33
2023-03-12T11:21:08.594Z,19.34
2023-03-12T11:23:35.869Z,19.37
2023-03-12T11:26:04.558Z,19.38
2023-03-12T11:28:41.294Z,19.39
2023-03-12T11:31:47.239Z,19.36
2023-03-12T11:34:21.877Z,19.34
2023-03-12T11:37:11.774Z,19.33
2023-03-12T11:39:48.521Z,19.32
2023-03-12T11:42:35.803Z,19.31
2023-03-12T11:45:24.261Z,19.31
2023-03-12T11:48:42.384Z,19.31
2023-03-12T11:51:30.456Z,19.32
2023-03-12T11:54:51.247Z,19.32
2023-03-12T11:57:48.964Z,19.31
2023-03-12T12:00:18.485Z,19.32
2023-03-12T12:03:23.212Z,19.29
2023-03-12T12:05:58.693Z,19.29
2023-03-12T12:08:44.050Z,19.28
2023-03-12T12:11:17.397Z,19.29
2023-03-12T12:13:47.601Z,19.28
2023-03-12T12:16:39.424Z,19.27
2023-03-12T12:19:18.640Z,19.26
2023-03-12T12:21:51.700Z,19.25
2023-03-12T12:24:50.312Z,19.24
2023-03-12T12:27:23.751Z,19.22
2023-03-12T12:30:08.987Z,19.22
2023-03-12T12:32:56.111Z,19.22
2023-03-12T12:35:28.561Z,19.16
2023-03-12T12:37:58.244Z,19.16
2023-03-12T12:40:30.108Z,19.17
2023-03-12T12:43:04.919Z,19.15
2023-03-12T12:45:33.894Z,19.15
2023-03-12T12:48:05.751Z,19.16
2023-03-12T12:50:37.103Z,19.14
2023-03-12T12:53:12.407Z,19.14
2023-03-12T12:55:52.483Z,19.12
2023-03-12T12:58:30.030Z,19.14
2023-03-12T13:01:01.182Z,19.13
2023-03-12T13:03:30.927Z,19.12
2023-03-12T13:06:06.612Z,19.11
2023-03-12T13:08:40.787Z,19.11
2023-03-12T13:11:35.443Z,19.12
2023-03-12T13:14:05.336Z,19.10
2023-03-12T13:16:36.819Z,19.09
2023-03-12T13:19:29.785Z,19.10
2023-03-12T13:22:26.698Z,19.08
2023-03-12T13:25:01.890Z,19.07
2023-03-12T13:27:37.684Z,19.07
2023-03-12T13:30:52.881Z,19.07
2023-03-12T13:33:37.396Z,19.06
2023-03-12T13:36:17.697Z,19.06
2023-03-12T13:39:04.005Z,19.04
2023-03-12T13:41:52.194Z,19.04
2023-03-12T13:44:48.212Z,19.04
2023-03-12T13:47:23.085Z,19.03
2023-03-12T13:49:56.665Z,19.02
2023-03-12T13:52:35.842Z,19.02
2023-03-12T13:55:31.617Z,19.00
2023-03-12T13:58:21.884Z,19.01
2023-03-12T14:00:55.117Z,19.01
2023-03-12T14:03:34.597Z,19.01
2023-03-12T14:06:08.093Z,19.00
2023-03-12T14:08:53.755Z,18.99
2023-03-12T14:11:30.602Z,18.98
2023-03-12T14:14:25.802Z,18.99
2023-03-12T14:16:59.979Z,18.98
2023-03-12T14:19:28.294Z,18.98
2023-03-12T14:21:55.762Z,18.97
2023-03-12T14:24:37.949Z,18.97
2023-03-12T14:27:07.172Z,18.96
2023-03-12T14:30:05.461Z,18.96
2023-03-12T14:32:32.587Z,18.96
2023-03-12T14:35:20.845Z,18.95
2023-03-12T14:38:02.466Z,18.95
2023-03-12T14:40:47.824Z,18.94
2023-03-12T14:43:34.584Z,18.94
2023-03-12T14:46:07.180Z,18.92
2023-03-12T14:48:38.274Z,18.93
2023-03-12T14:51:11.542Z,18.94
2023-03-12T14:53:39.917Z,18.91
2023-03-12T14:56:24.977Z,18.91
2023-03-12T14:58:52.470Z,18.91
2023-03-12T15:01:23.374Z,18.91
2023-03-12T15:04:05.630Z,18.89
2023-03-12T15:07:04.657Z,18.90
2023-03-12T15:09:35.849Z,18.90
2023-03-12T15:12:23.978Z,18.88
2023-03-12T15:14:57.717Z,18.89
2023-03-12T15:17:27.049Z,18.88
2023-03-12T15:19:54.832Z,18.88
2023-03-12T15:22:25.241Z,18.87
2023-03-12T15:24:56.430Z,18.88
2023-03-12T15:27:33.865Z,18.87
2023-03-12T15:30:01.034Z,18.86
2023-03-12T15:32:28.342Z,18.87
2023-03-12T15:34:59.150Z,18.87
2023-03-12T15:37:37.664Z,18.86
2023-03-12T15:40:22.446Z,18.85
2023-03-12T15:42:51.744Z,18.85
2023-03-12T15:45:24.431Z,18.85
2023-03-12T15:47:55.523Z,18.84
2023-03-12T15:50:38.777Z,18.85
2023-03-12T15:53:12.611Z,18.85
2023-03-12T15:55:46.757Z,18.85
2023-03-12T15:58:35.030Z,18.84
2023-03-12T16:01:31.711Z,18.84
2023-03-12T16:04:00.106Z,18.83
2023-03-12T16:06:30.027Z,18.84
2023-03-12T16:09:00.533Z,18.83
2023-03-12T16:11:31.208Z,18.83
2023-03-12T16:14:24.797Z,18.84
2023-03-12T16:16:51.561Z,18.82
2023-03-12T16:19:22.015Z,18.82
2023-03-12T16:21:50.958Z,18.81
2023-03-12T16:24:20.603Z,18.81
2023-03-12T16:26:59.681Z,18.81
2023-03-12T16:29:31.402Z,18.81
2023-03-12T16:32:00.326Z,18.80
2023-03-12T16:34:27.103Z,18.80
2023-03-12T16:36:56.824Z,18.80
2023-03-12T16:39:23.930Z,18.81
2023-03-12T16:41:51.945Z,18.80
2023-03-12T16:44:22.848Z,18.79
2023-03-12T16:46:50.343Z,18.79
2023-03-12T16:49:21.157Z,18.78
2023-03-12T16:51:48.412Z,18.78
2023-03-12T16:54:18.906Z,18.79
2023-03-12T16:56:51.153Z,18.77
2023-03-12T16:59:28.893Z,18.77
2023-03-12T17:01:56.703Z,18.77
2023-03-12T17:04:25.698Z,18.76
2023-03-12T17:06:54.463Z,18.77
2023-03-12T17:09:21.287Z,18.76
2023-03-12T17:11:50.251Z,18.73
2023-03-12T17:14:22.409Z,18.76
2023-03-12T17:16:49.517Z,18.76
2023-03-12T17:19:20.944Z,18.75
2023-03-12T17:21:47.935Z,18.75
2023-03-12T17:24:16.928Z,18.75
2023-03-12T17:26:45.452Z,18.75
2023-03-12T17:29:14.502Z,18.74
2023-03-12T17:31:43.324Z,18.75
2023-03-12T17:34:10.091Z,18.73
2023-03-12T17:36:41.946Z,18.73
2023-03-12T17:39:19.771Z,18.72
2023-03-12T17:41:50.172Z,18.73
2023-03-12T17:44:18.451Z,18.71
2023-03-12T17:46:58.944Z,18.73
2023-03-12T17:49:29.546Z,18.72
2023-03-12T17:51:57.590Z,18.72
2023-03-12T17:54:24.364Z,18.71
2023-03-12T17:56:54.203Z,18.71
2023-03-12T17:59:23.511Z,18.71
2023-03-12T18:01:52.513Z,18.71
2023-03-12T18:04:19.187Z,18.71
2023-03-12T18:06:51.070Z,18.68
2023-03-12T18:09:19.994Z,18.69
2023-03-12T18:11:48.212Z,18.68
2023-03-12T18:14:14.850Z,18.69
2023-03-12T18:16:45.021Z,18.68
2023-03-12T18:19:12.764Z,18.68
2023-03-12T18:21:39.483Z,18.67
2023-03-12T18:24:13.985Z,18.69
2023-03-12T18:26:41.378Z,18.67
2023-03-12T18:29:10.969Z,18.67
2023-03-12T18:31:40.087Z,18.67
2023-03-12T18:34:11.569Z,18.67
2023-03-12T18:36:42.974Z,18.66
2023-03-12T18:39:16.323Z,18.66
2023-03-12T18:41:43.664Z,18.66
2023-03-12T18:44:13.901Z,18.66
2023-03-12T18:46:40.690Z,18.64
2023-03-12T18:49:08.209Z,18.64
2023-03-12T18:51:37.346Z,18.63
2023-03-12T18:54:06.615Z,18.64
2023-03-12T18:56:39.270Z,18.63
2023-03-12T18:59:05.968Z,18.63
2023-03-12T19:01:35.224Z,18.64
2023-03-12T19:04:02.573Z,18.63
2023-03-12T19:06:48.134Z,18.63
2023-03-12T19:09:17.044Z,18.62
2023-03-12T19:11:44.241Z,18.62
2023-03-12T19:14:12.589Z,18.62
2023-03-12T19:16:42.617Z,18.61
2023-03-12T19:19:14.459Z,18.61
2023-03-12T19:21:45.297Z,18.60
2023-03-12T19:24:12.127Z,18.60
2023-03-12T19:26:41.197Z,18.60
2023-03-12T19:29:09.930Z,18.59
2023-03-12T19:31:39.797Z,18.59
2023-03-12T19:34:10.871Z,18.58
2023-03-12T19:36:42.659Z,18.59
2023-03-12T19:39:21.062Z,18.58
2023-03-12T19:41:48.646Z,18.57
2023-03-12T19:44:20.213Z,18.56
2023-03-12T19:46:50.713Z,18.57
2023-03-12T19:49:17.583Z,18.56
2023-03-12T19:51:48.910Z,18.57
2023-03-12T19:54:16.081Z,18.56
2023-03-12T19:56:42.951Z,18.55
2023-03-12T19:59:14.527Z,18.55
2023-03-12T20:01:43.808Z,18.55
2023-03-12T20:04:11.611Z,18.54
2023-03-12T20:06:41.120Z,18.55
2023-03-12T20:09:11.252Z,18.53
2023-03-12T20:11:40.740Z,18.53
2023-03-12T20:14:07.565Z,18.53
2023-03-12T20:16:34.415Z,18.52
2023-03-12T20:19:03.681Z,18.53
2023-03-12T20:21:32.022Z,18.52
2023-03-12T20:24:02.277Z,18.51
2023-03-12T20:26:31.350Z,18.52
2023-03-12T20:29:04.591Z,18.51
2023-03-12T20:31:35.596Z,18.50
2023-03-12T20:34:04.157Z,18.50
2023-03-12T20:36:34.418Z,18.50
2023-03-12T20:39:03.596Z,18.48
2023-03-12T20:41:34.096Z,18.48
2023-03-12T20:44:01.379Z,18.49
2023-03-12T20:46:29.332Z,18.48
2023-03-12T20:48:58.358Z,18.49
2023-03-12T20:51:29.366Z,18.48
2023-03-12T20:53:59.158Z,18.48
2023-03-12T20:56:27.715Z,18.46
2023-03-12T21:01:35.869Z,18.46
2023-03-12T21:04:04.084Z,18.47
2023-03-12T21:06:38.506Z,18.47
2023-03-12T21:09:07.622Z,18.45
2023-03-12T21:11:39.858Z,18.47
2023-03-12T21:14:06.916Z,18.46
2023-03-12T21:16:35.138Z,18.45
2023-03-12T21:19:04.902Z,18.45
2023-03-12T21:21:36.464Z,18.43
2023-03-12T21:24:03.991Z,18.45
2023-03-12T21:26:31.092Z,18.42
2023-03-12T21:28:58.793Z,18.44
2023-03-12T21:31:28.188Z,18.43
2023-03-12T21:34:00.589Z,18.44
2023-03-12T21:36:33.475Z,18.38
2023-03-12T21:39:02.116Z,18.25
2023-03-12T21:41:29.680Z,18.03
2023-03-12T21:44:00.120Z,17.92
2023-03-12T21:46:30.050Z,17.88
2023-03-12T21:48:57.462Z,18.03
2023-03-12T21:51:26.546Z,18.12
2023-03-12T21:53:54.728Z,18.16
2023-03-12T21:56:22.775Z,18.18
2023-03-12T21:58:49.763Z,18.19
2023-03-12T22:01:18.011Z,18.21
2023-03-12T22:03:48.933Z,18.22
2023-03-12T22:06:16.851Z,18.23
2023-03-12T22:08:48.174Z,18.23
2023-03-12T22:11:14.871Z,18.25
2023-03-12T22:13:49.170Z,18.25
2023-03-12T22:16:20.393Z,18.14
2023-03-12T22:18:46.967Z,17.56
2023-03-12T22:21:19.952Z,17.27
2023-03-12T22:23:51.738Z,17.02
2023-03-12T22:26:26.760Z,16.99
2023-03-12T22:29:01.263Z,17.30
2023-03-12T22:31:31.056Z,17.39
2023-03-12T22:34:03.160Z,17.43
2023-03-12T22:36:35.324Z,17.45
2023-03-12T22:39:06.633Z,17.52
2023-03-12T22:41:33.241Z,17.53
2023-03-12T22:44:07.252Z,17.55
2023-03-12T22:46:38.906Z,17.56
2023-03-12T22:49:09.009Z,17.60
2023-03-12T22:51:36.766Z,17.64
2023-03-12T22:54:08.618Z,17.65
2023-03-12T22:56:40.016Z,17.66
2023-03-12T22:59:07.921Z,17.71
2023-03-12T23:01:37.449Z,17.72
2023-03-12T23:04:06.734Z,17.75
2023-03-12T23:06:35.832Z,17.76
2023-03-12T23:09:04.960Z,17.78
2023-03-12T23:11:34.021Z,17.81
2023-03-12T23:14:00.838Z,17.83
2023-03-12T23:16:31.988Z,17.85
2023-03-12T23:19:01.738Z,17.87
2023-03-12T23:21:34.071Z,17.88
2023-03-12T23:24:08.724Z,17.90
2023-03-12T23:26:37.933Z,17.91
2023-03-12T23:29:11.570Z,17.93
2023-03-12T23:31:38.796Z,17.94
2023-03-12T23:34:06.215Z,17.96
2023-03-12T23:36:37.465Z,17.97
2023-03-12T23:39:08.844Z,17.97
2023-03-12T23:41:37.615Z,17.96
2023-03-12T23:44:06.969Z,18.00
2023-03-12T23:46:36.012Z,18.00
2023-03-12T23:49:02.768Z,18.01
2023-03-12T23:51:34.287Z,18.01
2023-03-12T23:54:08.351Z,18.02
2023-03-12T23:56:40.843Z,18.02
2023-03-12T23:59:12.155Z,18.02
